Terminal Aerodrome Forecast
Issued by NWS Shreveport, LA

Home | Current Version | Previous Version | Text Only | Print | Product List | Glossary On
Versions: 1 2 3 4 5 6 7 8 9 10 11 12 13 14 15 16 17 18 19 20 21
000
FTUS44 KSHV 240800 AAB
TAFLFK
TAF AMD
KLFK 240813Z 2408/2506 15004KT P6SM OVC010
     FM241500 19012G18KT P6SM BKN035
     FM242000 21013G20KT P6SM VCTS BKN045CB
     FM250300 31008KT P6SM SKC=

USA.gov is the U.S. government's official web portal to all federal, state and local government web resources and services.